sensor_id;sensor_type;location;lat;lon;timestamp;pressure;altitude;pressure_sealevel;temperature;humidity
75045;BME280;63614;56.026;35.960;2023-12-04T00:01:33;98246.47;;;-6.39;78.79
75045;BME280;63614;56.026;35.960;2023-12-04T00:03:59;98249.00;;;-6.63;79.11
75045;BME280;63614;56.026;35.960;2023-12-04T00:06:24;98238.50;;;-6.70;79.36
75045;BME280;63614;56.026;35.960;2023-12-04T00:08:50;98251.38;;;-6.49;79.31
75045;BME280;63614;56.026;35.960;2023-12-04T00:11:16;98246.56;;;-6.65;79.08
75045;BME280;63614;56.026;35.960;2023-12-04T00:13:42;98246.69;;;-6.66;79.29
75045;BME280;63614;56.026;35.960;2023-12-04T00:16:08;98247.91;;;-6.72;79.58
75045;BME280;63614;56.026;35.960;2023-12-04T00:18:34;98251.56;;;-6.76;79.41
75045;BME280;63614;56.026;35.960;2023-12-04T00:21:00;98253.94;;;-6.86;79.26
75045;BME280;63614;56.026;35.960;2023-12-04T00:23:26;98257.94;;;-6.83;79.50
75045;BME280;63614;56.026;35.960;2023-12-04T00:25:54;98257.56;;;-6.90;79.50
75045;BME280;63614;56.026;35.960;2023-12-04T00:28:20;98260.50;;;-6.96;79.54
75045;BME280;63614;56.026;35.960;2023-12-04T00:30:46;98254.84;;;-7.00;79.76
75045;BME280;63614;56.026;35.960;2023-12-04T00:33:12;98262.53;;;-7.01;79.26
75045;BME280;63614;56.026;35.960;2023-12-04T00:35:38;98272.47;;;-7.11;79.35
75045;BME280;63614;56.026;35.960;2023-12-04T00:38:03;98278.22;;;-7.09;79.43
75045;BME280;63614;56.026;35.960;2023-12-04T00:40:30;98286.59;;;-7.08;78.82
75045;BME280;63614;56.026;35.960;2023-12-04T00:42:56;98288.75;;;-7.15;79.01
75045;BME280;63614;56.026;35.960;2023-12-04T00:45:22;98286.22;;;-7.15;78.76
75045;BME280;63614;56.026;35.960;2023-12-04T00:47:48;98300.88;;;-7.20;79.10
75045;BME280;63614;56.026;35.960;2023-12-04T00:50:14;98291.06;;;-7.25;78.91
75045;BME280;63614;56.026;35.960;2023-12-04T00:52:40;98303.22;;;-7.30;78.74
75045;BME280;63614;56.026;35.960;2023-12-04T00:55:06;98304.50;;;-7.37;78.95
75045;BME280;63614;56.026;35.960;2023-12-04T00:57:32;98306.63;;;-7.31;78.75
75045;BME280;63614;56.026;35.960;2023-12-04T00:59:58;98302.50;;;-7.32;78.17
75045;BME280;63614;56.026;35.960;2023-12-04T01:02:24;98303.59;;;-7.36;78.12
75045;BME280;63614;56.026;35.960;2023-12-04T01:04:49;98301.56;;;-7.31;78.41
75045;BME280;63614;56.026;35.960;2023-12-04T01:07:16;98300.19;;;-7.35;78.31
75045;BME280;63614;56.026;35.960;2023-12-04T01:09:41;98305.22;;;-7.35;78.44
75045;BME280;63614;56.026;35.960;2023-12-04T01:12:07;98295.91;;;-7.60;78.51
75045;BME280;63614;56.026;35.960;2023-12-04T01:14:33;98301.25;;;-7.65;78.63
75045;BME280;63614;56.026;35.960;2023-12-04T01:17:00;98297.50;;;-7.72;78.85
75045;BME280;63614;56.026;35.960;2023-12-04T01:19:26;98298.72;;;-7.78;78.96
75045;BME280;63614;56.026;35.960;2023-12-04T01:21:52;98294.88;;;-7.83;79.37
75045;BME280;63614;56.026;35.960;2023-12-04T01:24:18;98301.72;;;-7.86;79.43
75045;BME280;63614;56.026;35.960;2023-12-04T01:26:44;98298.56;;;-8.02;79.68
75045;BME280;63614;56.026;35.960;2023-12-04T01:29:10;98301.50;;;-7.95;79.74
75045;BME280;63614;56.026;35.960;2023-12-04T01:31:36;98308.00;;;-7.91;79.49
75045;BME280;63614;56.026;35.960;2023-12-04T01:34:01;98309.97;;;-7.96;79.39
75045;BME280;63614;56.026;35.960;2023-12-04T01:36:27;98310.31;;;-8.15;79.71
75045;BME280;63614;56.026;35.960;2023-12-04T01:38:53;98309.28;;;-7.98;79.49
75045;BME280;63614;56.026;35.960;2023-12-04T01:41:19;98320.53;;;-7.90;78.73
75045;BME280;63614;56.026;35.960;2023-12-04T01:43:45;98326.19;;;-7.86;78.03
75045;BME280;63614;56.026;35.960;2023-12-04T01:46:11;98320.09;;;-7.83;78.12
75045;BME280;63614;56.026;35.960;2023-12-04T01:48:38;98329.41;;;-7.84;77.73
75045;BME280;63614;56.026;35.960;2023-12-04T01:51:06;98339.81;;;-7.76;77.80
75045;BME280;63614;56.026;35.960;2023-12-04T01:53:35;98334.28;;;-7.68;77.80
75045;BME280;63614;56.026;35.960;2023-12-04T01:56:01;98337.22;;;-7.61;77.38
75045;BME280;63614;56.026;35.960;2023-12-04T01:58:27;98347.03;;;-7.57;77.22
75045;BME280;63614;56.026;35.960;2023-12-04T02:00:53;98340.78;;;-7.51;77.07
75045;BME280;63614;56.026;35.960;2023-12-04T02:03:19;98346.31;;;-7.59;76.65
75045;BME280;63614;56.026;35.960;2023-12-04T02:05:46;98341.66;;;-7.65;76.78
75045;BME280;63614;56.026;35.960;2023-12-04T02:08:13;98343.38;;;-7.65;77.08
75045;BME280;63614;56.026;35.960;2023-12-04T02:10:39;98345.56;;;-7.74;77.14
75045;BME280;63614;56.026;35.960;2023-12-04T02:13:06;98353.75;;;-7.83;77.53
75045;BME280;63614;56.026;35.960;2023-12-04T02:15:33;98356.09;;;-7.80;78.09
75045;BME280;63614;56.026;35.960;2023-12-04T02:17:59;98360.09;;;-7.77;77.91
75045;BME280;63614;56.026;35.960;2023-12-04T02:20:34;98372.38;;;-7.58;77.85
75045;BME280;63614;56.026;35.960;2023-12-04T02:23:01;98366.66;;;-7.47;77.35
75045;BME280;63614;56.026;35.960;2023-12-04T02:25:28;98367.25;;;-7.44;77.70
75045;BME280;63614;56.026;35.960;2023-12-04T02:27:56;98364.75;;;-7.31;77.59
75045;BME280;63614;56.026;35.960;2023-12-04T02:30:24;98360.63;;;-7.32;77.47
75045;BME280;63614;56.026;35.960;2023-12-04T02:32:51;98382.00;;;-7.38;77.67
75045;BME280;63614;56.026;35.960;2023-12-04T02:35:23;98390.75;;;-7.16;77.40
75045;BME280;63614;56.026;35.960;2023-12-04T02:37:52;98392.94;;;-7.12;76.86
75045;BME280;63614;56.026;35.960;2023-12-04T02:40:18;98395.38;;;-7.23;77.43
75045;BME280;63614;56.026;35.960;2023-12-04T02:42:45;98392.03;;;-7.23;77.47
75045;BME280;63614;56.026;35.960;2023-12-04T02:45:11;98398.63;;;-7.08;76.84
75045;BME280;63614;56.026;35.960;2023-12-04T02:47:37;98411.56;;;-7.00;77.29
75045;BME280;63614;56.026;35.960;2023-12-04T02:50:03;98414.50;;;-7.06;77.16
75045;BME280;63614;56.026;35.960;2023-12-04T02:52:29;98418.47;;;-6.76;77.15
75045;BME280;63614;56.026;35.960;2023-12-04T02:54:55;98412.28;;;-6.72;76.57
75045;BME280;63614;56.026;35.960;2023-12-04T02:57:21;98414.81;;;-6.72;76.31
75045;BME280;63614;56.026;35.960;2023-12-04T02:59:48;98423.22;;;-6.71;76.40
75045;BME280;63614;56.026;35.960;2023-12-04T03:02:14;98410.66;;;-6.73;76.47
75045;BME280;63614;56.026;35.960;2023-12-04T03:04:41;98407.00;;;-6.69;76.31
75045;BME280;63614;56.026;35.960;2023-12-04T03:07:06;98428.38;;;-6.60;76.50
75045;BME280;63614;56.026;35.960;2023-12-04T03:09:32;98428.66;;;-6.52;75.90
75045;BME280;63614;56.026;35.960;2023-12-04T03:11:58;98431.38;;;-6.55;75.64
75045;BME280;63614;56.026;35.960;2023-12-04T03:14:24;98426.94;;;-6.64;75.58
75045;BME280;63614;56.026;35.960;2023-12-04T03:16:51;98446.56;;;-6.55;75.55
75045;BME280;63614;56.026;35.960;2023-12-04T03:19:16;98443.13;;;-6.54;75.58
75045;BME280;63614;56.026;35.960;2023-12-04T03:21:42;98445.53;;;-6.65;75.15
75045;BME280;63614;56.026;35.960;2023-12-04T03:24:08;98460.00;;;-6.80;75.26
75045;BME280;63614;56.026;35.960;2023-12-04T03:26:35;98457.38;;;-6.91;75.19
75045;BME280;63614;56.026;35.960;2023-12-04T03:29:01;98461.44;;;-7.02;75.53
75045;BME280;63614;56.026;35.960;2023-12-04T03:31:26;98465.97;;;-6.94;75.58
75045;BME280;63614;56.026;35.960;2023-12-04T03:33:54;98477.28;;;-7.00;75.21
75045;BME280;63614;56.026;35.960;2023-12-04T03:36:20;98485.56;;;-6.98;75.20
75045;BME280;63614;56.026;35.960;2023-12-04T03:38:45;98492.25;;;-6.97;74.90
75045;BME280;63614;56.026;35.960;2023-12-04T03:41:15;98501.44;;;-6.96;74.81
75045;BME280;63614;56.026;35.960;2023-12-04T03:43:41;98509.03;;;-6.96;74.98
75045;BME280;63614;56.026;35.960;2023-12-04T03:46:07;98507.75;;;-6.88;74.68
75045;BME280;63614;56.026;35.960;2023-12-04T03:48:33;98512.31;;;-6.81;74.70
75045;BME280;63614;56.026;35.960;2023-12-04T03:50:59;98516.69;;;-6.70;73.98
75045;BME280;63614;56.026;35.960;2023-12-04T03:53:28;98520.09;;;-6.84;74.04
75045;BME280;63614;56.026;35.960;2023-12-04T03:55:58;98526.78;;;-6.83;74.39
75045;BME280;63614;56.026;35.960;2023-12-04T03:58:24;98535.38;;;-6.72;73.70
75045;BME280;63614;56.026;35.960;2023-12-04T04:00:49;98539.19;;;-6.80;73.87
75045;BME280;63614;56.026;35.960;2023-12-04T04:03:15;98550.25;;;-6.81;73.83
75045;BME280;63614;56.026;35.960;2023-12-04T04:05:41;98553.16;;;-6.87;74.53
75045;BME280;63614;56.026;35.960;2023-12-04T04:08:07;98557.22;;;-6.84;74.47
75045;BME280;63614;56.026;35.960;2023-12-04T04:10:34;98563.31;;;-6.74;74.17
75045;BME280;63614;56.026;35.960;2023-12-04T04:12:59;98564.00;;;-6.72;74.24
75045;BME280;63614;56.026;35.960;2023-12-04T04:15:26;98566.84;;;-6.64;74.15
75045;BME280;63614;56.026;35.960;2023-12-04T04:17:52;98560.28;;;-6.66;73.84
75045;BME280;63614;56.026;35.960;2023-12-04T04:20:18;98562.53;;;-6.62;74.49
75045;BME280;63614;56.026;35.960;2023-12-04T04:22:43;98571.69;;;-6.73;74.45
75045;BME280;63614;56.026;35.960;2023-12-04T04:25:10;98563.22;;;-6.60;74.42
75045;BME280;63614;56.026;35.960;2023-12-04T04:27:36;98567.06;;;-6.67;74.46
75045;BME280;63614;56.026;35.960;2023-12-04T04:30:02;98573.75;;;-6.53;74.43
75045;BME280;63614;56.026;35.960;2023-12-04T04:32:31;98578.03;;;-6.41;73.99
75045;BME280;63614;56.026;35.960;2023-12-04T04:34:57;98585.75;;;-6.69;74.39
75045;BME280;63614;56.026;35.960;2023-12-04T04:37:23;98591.63;;;-6.69;74.78
75045;BME280;63614;56.026;35.960;2023-12-04T04:39:49;98581.03;;;-6.48;74.44
75045;BME280;63614;56.026;35.960;2023-12-04T04:42:15;98582.03;;;-6.64;74.82
75045;BME280;63614;56.026;35.960;2023-12-04T04:44:41;98579.59;;;-6.65;74.29
75045;BME280;63614;56.026;35.960;2023-12-04T04:47:07;98584.97;;;-6.70;74.53
75045;BME280;63614;56.026;35.960;2023-12-04T04:49:33;98590.53;;;-6.65;74.44
75045;BME280;63614;56.026;35.960;2023-12-04T04:51:59;98597.50;;;-6.68;74.69
75045;BME280;63614;56.026;35.960;2023-12-04T04:54:25;98590.00;;;-6.83;74.60
75045;BME280;63614;56.026;35.960;2023-12-04T04:56:51;98598.06;;;-6.90;74.72
75045;BME280;63614;56.026;35.960;2023-12-04T04:59:17;98602.13;;;-6.75;74.84
75045;BME280;63614;56.026;35.960;2023-12-04T05:01:43;98604.56;;;-6.73;74.48
75045;BME280;63614;56.026;35.960;2023-12-04T05:04:09;98594.25;;;-6.70;74.42
75045;BME280;63614;56.026;35.960;2023-12-04T05:06:35;98601.63;;;-6.80;74.81
75045;BME280;63614;56.026;35.960;2023-12-04T05:09:00;98602.13;;;-6.75;74.27
75045;BME280;63614;56.026;35.960;2023-12-04T05:11:26;98608.13;;;-6.76;73.96
75045;BME280;63614;56.026;35.960;2023-12-04T05:13:52;98615.97;;;-6.81;74.13
75045;BME280;63614;56.026;35.960;2023-12-04T05:16:18;98615.78;;;-6.78;74.64
75045;BME280;63614;56.026;35.960;2023-12-04T05:18:44;98623.06;;;-6.86;73.99
75045;BME280;63614;56.026;35.960;2023-12-04T05:21:10;98622.59;;;-6.93;74.25
75045;BME280;63614;56.026;35.960;2023-12-04T05:23:37;98621.47;;;-7.01;74.72
75045;BME280;63614;56.026;35.960;2023-12-04T05:26:03;98626.75;;;-6.91;74.82
75045;BME280;63614;56.026;35.960;2023-12-04T05:28:30;98629.56;;;-6.96;74.43
75045;BME280;63614;56.026;35.960;2023-12-04T05:30:55;98624.66;;;-6.85;74.62
75045;BME280;63614;56.026;35.960;2023-12-04T05:33:21;98626.44;;;-6.72;74.13
75045;BME280;63614;56.026;35.960;2023-12-04T05:35:48;98625.16;;;-6.80;73.99
75045;BME280;63614;56.026;35.960;2023-12-04T05:38:14;98633.31;;;-6.74;74.26
75045;BME280;63614;56.026;35.960;2023-12-04T05:40:40;98642.16;;;-6.82;74.50
75045;BME280;63614;56.026;35.960;2023-12-04T05:43:06;98648.13;;;-6.55;73.62
75045;BME280;63614;56.026;35.960;2023-12-04T05:45:32;98652.91;;;-6.51;73.01
75045;BME280;63614;56.026;35.960;2023-12-04T05:47:58;98660.06;;;-6.45;73.23
75045;BME280;63614;56.026;35.960;2023-12-04T05:50:24;98667.63;;;-6.58;73.04
75045;BME280;63614;56.026;35.960;2023-12-04T05:52:50;98668.13;;;-6.65;73.13
75045;BME280;63614;56.026;35.960;2023-12-04T05:55:16;98677.34;;;-6.64;73.62
75045;BME280;63614;56.026;35.960;2023-12-04T05:57:43;98686.91;;;-6.42;73.18
75045;BME280;63614;56.026;35.960;2023-12-04T06:00:10;98676.94;;;-6.18;72.49
75045;BME280;63614;56.026;35.960;2023-12-04T06:02:42;98687.66;;;-6.27;72.23
75045;BME280;63614;56.026;35.960;2023-12-04T06:05:09;98687.47;;;-6.11;72.39
75045;BME280;63614;56.026;35.960;2023-12-04T06:07:35;98693.28;;;-6.09;72.33
75045;BME280;63614;56.026;35.960;2023-12-04T06:10:02;98696.59;;;-5.96;71.70
75045;BME280;63614;56.026;35.960;2023-12-04T06:12:30;98708.03;;;-6.03;72.06
75045;BME280;63614;56.026;35.960;2023-12-04T06:14:57;98699.66;;;-6.04;71.61
75045;BME280;63614;56.026;35.960;2023-12-04T06:17:24;98702.66;;;-5.86;71.74
75045;BME280;63614;56.026;35.960;2023-12-04T06:19:50;98703.81;;;-5.77;71.02
75045;BME280;63614;56.026;35.960;2023-12-04T06:22:16;98703.50;;;-5.85;71.14
75045;BME280;63614;56.026;35.960;2023-12-04T06:24:46;98710.50;;;-5.76;71.48
75045;BME280;63614;56.026;35.960;2023-12-04T06:27:16;98708.16;;;-5.79;71.24
75045;BME280;63614;56.026;35.960;2023-12-04T06:29:45;98714.22;;;-5.81;71.06
75045;BME280;63614;56.026;35.960;2023-12-04T06:32:12;98712.00;;;-5.60;70.71
75045;BME280;63614;56.026;35.960;2023-12-04T06:34:39;98720.09;;;-5.55;70.75
75045;BME280;63614;56.026;35.960;2023-12-04T06:37:15;98721.03;;;-5.56;70.57
75045;BME280;63614;56.026;35.960;2023-12-04T06:39:41;98720.00;;;-5.79;70.95
75045;BME280;63614;56.026;35.960;2023-12-04T06:42:08;98729.13;;;-5.64;71.67
75045;BME280;63614;56.026;35.960;2023-12-04T06:44:35;98715.97;;;-5.43;71.22
75045;BME280;63614;56.026;35.960;2023-12-04T06:47:01;98716.75;;;-5.43;70.58
75045;BME280;63614;56.026;35.960;2023-12-04T06:49:31;98722.66;;;-5.42;70.16
75045;BME280;63614;56.026;35.960;2023-12-04T06:51:57;98711.97;;;-5.22;70.31
75045;BME280;63614;56.026;35.960;2023-12-04T06:54:23;98721.38;;;-4.98;70.22
75045;BME280;63614;56.026;35.960;2023-12-04T06:56:50;98727.44;;;-4.88;69.69
75045;BME280;63614;56.026;35.960;2023-12-04T06:59:17;98720.84;;;-4.90;69.53
75045;BME280;63614;56.026;35.960;2023-12-04T07:01:43;98722.78;;;-4.94;68.74
75045;BME280;63614;56.026;35.960;2023-12-04T07:04:09;98724.31;;;-5.04;69.12
75045;BME280;63614;56.026;35.960;2023-12-04T07:06:36;98723.34;;;-4.78;69.17
75045;BME280;63614;56.026;35.960;2023-12-04T07:09:02;98729.00;;;-4.74;68.74
75045;BME280;63614;56.026;35.960;2023-12-04T07:11:30;98730.75;;;-4.50;68.90
75045;BME280;63614;56.026;35.960;2023-12-04T07:13:56;98734.19;;;-4.76;68.40
75045;BME280;63614;56.026;35.960;2023-12-04T07:16:22;98741.38;;;-4.69;68.91
75045;BME280;63614;56.026;35.960;2023-12-04T07:18:48;98739.88;;;-4.72;68.81
75045;BME280;63614;56.026;35.960;2023-12-04T07:21:13;98739.78;;;-4.70;69.17
75045;BME280;63614;56.026;35.960;2023-12-04T07:23:39;98753.53;;;-4.62;68.80
75045;BME280;63614;56.026;35.960;2023-12-04T07:26:05;98750.25;;;-4.51;68.65
75045;BME280;63614;56.026;35.960;2023-12-04T07:28:33;98756.53;;;-4.81;69.05
75045;BME280;63614;56.026;35.960;2023-12-04T07:31:00;98761.50;;;-4.79;68.77
75045;BME280;63614;56.026;35.960;2023-12-04T07:33:29;98764.06;;;-4.55;68.43
75045;BME280;63614;56.026;35.960;2023-12-04T07:35:55;98768.94;;;-4.52;68.56
75045;BME280;63614;56.026;35.960;2023-12-04T07:38:21;98784.50;;;-4.32;67.73
75045;BME280;63614;56.026;35.960;2023-12-04T07:40:47;98780.56;;;-4.36;68.07
75045;BME280;63614;56.026;35.960;2023-12-04T07:43:12;98791.16;;;-4.43;68.30
75045;BME280;63614;56.026;35.960;2023-12-04T07:45:40;98792.81;;;-4.54;68.14
75045;BME280;63614;56.026;35.960;2023-12-04T07:48:07;98796.84;;;-4.52;67.74
75045;BME280;63614;56.026;35.960;2023-12-04T07:50:33;98799.56;;;-4.42;67.72
75045;BME280;63614;56.026;35.960;2023-12-04T07:52:59;98805.22;;;-4.26;67.20
75045;BME280;63614;56.026;35.960;2023-12-04T07:55:25;98801.34;;;-4.31;67.03
75045;BME280;63614;56.026;35.960;2023-12-04T07:57:51;98805.69;;;-4.21;66.95
75045;BME280;63614;56.026;35.960;2023-12-04T08:00:17;98807.03;;;-4.28;66.87
75045;BME280;63614;56.026;35.960;2023-12-04T08:02:44;98814.47;;;-4.38;66.22
75045;BME280;63614;56.026;35.960;2023-12-04T08:05:12;98818.31;;;-4.32;66.19
75045;BME280;63614;56.026;35.960;2023-12-04T08:07:38;98819.41;;;-4.23;66.05
75045;BME280;63614;56.026;35.960;2023-12-04T08:10:05;98822.66;;;-4.21;66.30
75045;BME280;63614;56.026;35.960;2023-12-04T08:12:32;98825.63;;;-4.27;66.18
75045;BME280;63614;56.026;35.960;2023-12-04T08:15:00;98825.06;;;-4.44;66.09
75045;BME280;63614;56.026;35.960;2023-12-04T08:17:31;98815.84;;;-4.21;66.19
75045;BME280;63614;56.026;35.960;2023-12-04T08:19:57;98822.16;;;-4.02;65.08
75045;BME280;63614;56.026;35.960;2023-12-04T08:22:23;98822.81;;;-4.11;65.28
75045;BME280;63614;56.026;35.960;2023-12-04T08:24:49;98820.50;;;-4.14;65.34
75045;BME280;63614;56.026;35.960;2023-12-04T08:27:14;98825.00;;;-4.31;65.62
75045;BME280;63614;56.026;35.960;2023-12-04T08:29:40;98829.50;;;-4.34;65.02
75045;BME280;63614;56.026;35.960;2023-12-04T08:32:06;98839.53;;;-4.33;65.70
75045;BME280;63614;56.026;35.960;2023-12-04T08:34:32;98839.75;;;-4.36;66.33
75045;BME280;63614;56.026;35.960;2023-12-04T08:36:58;98838.84;;;-4.35;66.20
75045;BME280;63614;56.026;35.960;2023-12-04T08:39:24;98851.28;;;-4.19;66.20
75045;BME280;63614;56.026;35.960;2023-12-04T08:41:49;98849.38;;;-4.28;66.12
75045;BME280;63614;56.026;35.960;2023-12-04T08:44:15;98848.09;;;-4.34;66.26
75045;BME280;63614;56.026;35.960;2023-12-04T08:46:43;98849.75;;;-4.46;66.25
75045;BME280;63614;56.026;35.960;2023-12-04T08:49:09;98850.94;;;-4.39;66.62
75045;BME280;63614;56.026;35.960;2023-12-04T08:51:35;98851.78;;;-4.14;66.48
75045;BME280;63614;56.026;35.960;2023-12-04T08:54:00;98858.59;;;-4.14;66.61
75045;BME280;63614;56.026;35.960;2023-12-04T08:56:26;98862.94;;;-4.16;65.82
75045;BME280;63614;56.026;35.960;2023-12-04T08:58:52;98856.69;;;-4.24;65.81
75045;BME280;63614;56.026;35.960;2023-12-04T09:01:18;98859.00;;;-4.45;66.68
75045;BME280;63614;56.026;35.960;2023-12-04T09:03:43;98864.63;;;-4.28;66.39
75045;BME280;63614;56.026;35.960;2023-12-04T09:06:09;98857.06;;;-4.17;66.13
75045;BME280;63614;56.026;35.960;2023-12-04T09:08:35;98860.66;;;-4.32;66.43
75045;BME280;63614;56.026;35.960;2023-12-04T09:11:01;98861.84;;;-4.12;66.45
75045;BME280;63614;56.026;35.960;2023-12-04T09:13:29;98857.63;;;-4.38;66.56
75045;BME280;63614;56.026;35.960;2023-12-04T09:15:56;98857.81;;;-4.28;66.63
75045;BME280;63614;56.026;35.960;2023-12-04T09:18:22;98863.19;;;-4.32;66.25
75045;BME280;63614;56.026;35.960;2023-12-04T09:20:47;98863.41;;;-4.23;66.38
75045;BME280;63614;56.026;35.960;2023-12-04T09:23:13;98866.28;;;-4.03;66.34
75045;BME280;63614;56.026;35.960;2023-12-04T09:25:39;98869.38;;;-4.24;66.19
75045;BME280;63614;56.026;35.960;2023-12-04T09:28:05;98866.69;;;-4.09;66.04
75045;BME280;63614;56.026;35.960;2023-12-04T09:30:33;98869.88;;;-4.18;66.04
75045;BME280;63614;56.026;35.960;2023-12-04T09:33:01;98864.84;;;-4.31;67.22
75045;BME280;63614;56.026;35.960;2023-12-04T09:35:26;98866.13;;;-4.13;67.18
75045;BME280;63614;56.026;35.960;2023-12-04T09:37:52;98866.59;;;-4.08;66.68
75045;BME280;63614;56.026;35.960;2023-12-04T09:40:19;98876.06;;;-4.10;66.60
75045;BME280;63614;56.026;35.960;2023-12-04T09:42:46;98881.03;;;-4.08;66.61
75045;BME280;63614;56.026;35.960;2023-12-04T09:45:13;98875.94;;;-4.08;66.02
75045;BME280;63614;56.026;35.960;2023-12-04T09:47:39;98886.31;;;-4.11;66.95
75045;BME280;63614;56.026;35.960;2023-12-04T09:50:06;98895.91;;;-3.91;66.70
75045;BME280;63614;56.026;35.960;2023-12-04T09:52:34;98889.34;;;-3.82;66.20
75045;BME280;63614;56.026;35.960;2023-12-04T09:55:01;98892.28;;;-3.75;66.00
75045;BME280;63614;56.026;35.960;2023-12-04T09:57:29;98890.38;;;-3.85;65.85
75045;BME280;63614;56.026;35.960;2023-12-04T09:59:58;98894.44;;;-3.82;66.31
75045;BME280;63614;56.026;35.960;2023-12-04T10:02:26;98890.50;;;-3.62;65.98
75045;BME280;63614;56.026;35.960;2023-12-04T10:04:52;98884.75;;;-3.53;65.29
75045;BME280;63614;56.026;35.960;2023-12-04T10:07:17;98901.47;;;-3.61;65.36
75045;BME280;63614;56.026;35.960;2023-12-04T10:09:43;98902.28;;;-3.61;64.71
75045;BME280;63614;56.026;35.960;2023-12-04T10:12:09;98917.16;;;-3.68;65.23
75045;BME280;63614;56.026;35.960;2023-12-04T10:14:35;98904.53;;;-3.45;65.95
75045;BME280;63614;56.026;35.960;2023-12-04T10:17:16;98913.97;;;-3.58;64.88
75045;BME280;63614;56.026;35.960;2023-12-04T10:19:46;98916.13;;;-3.65;65.82
75045;BME280;63614;56.026;35.960;2023-12-04T10:22:12;98912.00;;;-3.79;65.68
75045;BME280;63614;56.026;35.960;2023-12-04T10:24:39;98914.88;;;-3.84;66.12
75045;BME280;63614;56.026;35.960;2023-12-04T10:27:07;98915.25;;;-3.77;65.89
75045;BME280;63614;56.026;35.960;2023-12-04T10:29:49;98922.66;;;-3.74;66.28
75045;BME280;63614;56.026;35.960;2023-12-04T10:32:19;98925.16;;;-3.85;65.51
75045;BME280;63614;56.026;35.960;2023-12-04T10:34:48;98932.19;;;-3.89;66.12
75045;BME280;63614;56.026;35.960;2023-12-04T10:37:15;98948.72;;;-3.83;66.32
75045;BME280;63614;56.026;35.960;2023-12-04T10:39:47;98942.25;;;-3.87;65.90
75045;BME280;63614;56.026;35.960;2023-12-04T10:42:26;98946.16;;;-3.83;65.86
75045;BME280;63614;56.026;35.960;2023-12-04T10:44:55;98949.59;;;-3.95;66.00
75045;BME280;63614;56.026;35.960;2023-12-04T10:47:21;98948.28;;;-3.77;66.36
75045;BME280;63614;56.026;35.960;2023-12-04T10:49:49;98945.75;;;-3.77;65.84
75045;BME280;63614;56.026;35.960;2023-12-04T10:52:16;98949.72;;;-3.73;65.59
75045;BME280;63614;56.026;35.960;2023-12-04T10:54:48;98951.28;;;-3.96;66.19
75045;BME280;63614;56.026;35.960;2023-12-04T10:57:38;98953.31;;;-3.88;66.72
75045;BME280;63614;56.026;35.960;2023-12-04T11:00:05;98955.88;;;-4.01;67.12
75045;BME280;63614;56.026;35.960;2023-12-04T11:02:42;98957.78;;;-3.92;66.74
75045;BME280;63614;56.026;35.960;2023-12-04T11:05:14;98966.59;;;-3.72;66.42
75045;BME280;63614;56.026;35.960;2023-12-04T11:08:00;98965.66;;;-3.71;65.85
75045;BME280;63614;56.026;35.960;2023-12-04T11:10:29;98956.28;;;-3.70;66.12
75045;BME280;63614;56.026;35.960;2023-12-04T11:13:08;98956.19;;;-3.69;65.63
75045;BME280;63614;56.026;35.960;2023-12-04T11:15:40;98959.03;;;-3.60;65.67
75045;BME280;63614;56.026;35.960;2023-12-04T11:18:07;98965.03;;;-3.61;65.19
75045;BME280;63614;56.026;35.960;2023-12-04T11:20:41;98968.16;;;-3.58;65.41
75045;BME280;63614;56.026;35.960;2023-12-04T11:23:09;98972.22;;;-3.55;65.23
75045;BME280;63614;56.026;35.960;2023-12-04T11:25:35;98969.31;;;-3.62;65.19
75045;BME280;63614;56.026;35.960;2023-12-04T11:28:02;98974.13;;;-3.46;65.46
75045;BME280;63614;56.026;35.960;2023-12-04T11:30:29;98985.00;;;-3.44;64.82
75045;BME280;63614;56.026;35.960;2023-12-04T11:32:55;98976.81;;;-3.36;64.74
75045;BME280;63614;56.026;35.960;2023-12-04T11:35:27;98974.75;;;-3.55;64.86
75045;BME280;63614;56.026;35.960;2023-12-04T11:37:53;98985.53;;;-3.52;64.78
75045;BME280;63614;56.026;35.960;2023-12-04T11:40:19;98987.63;;;-3.45;64.39
75045;BME280;63614;56.026;35.960;2023-12-04T11:42:45;98987.19;;;-3.63;64.24
75045;BME280;63614;56.026;35.960;2023-12-04T11:45:18;98992.50;;;-3.67;64.24
75045;BME280;63614;56.026;35.960;2023-12-04T11:47:57;98999.34;;;-3.56;64.31
75045;BME280;63614;56.026;35.960;2023-12-04T11:50:26;99002.94;;;-3.58;63.60
75045;BME280;63614;56.026;35.960;2023-12-04T11:52:54;99008.84;;;-3.34;64.02
75045;BME280;63614;56.026;35.960;2023-12-04T11:55:22;99007.22;;;-3.35;63.52
75045;BME280;63614;56.026;35.960;2023-12-04T11:57:50;99009.25;;;-3.40;63.22
75045;BME280;63614;56.026;35.960;2023-12-04T12:05:22;99013.06;;;-3.45;63.61
75045;BME280;63614;56.026;35.960;2023-12-04T12:07:49;99013.28;;;-3.49;63.77
75045;BME280;63614;56.026;35.960;2023-12-04T12:10:16;99019.84;;;-3.70;63.66
75045;BME280;63614;56.026;35.960;2023-12-04T12:12:43;99018.59;;;-4.02;64.70
75045;BME280;63614;56.026;35.960;2023-12-04T12:15:10;99016.44;;;-3.95;65.53
75045;BME280;63614;56.026;35.960;2023-12-04T12:17:41;99008.34;;;-4.13;65.18
75045;BME280;63614;56.026;35.960;2023-12-04T12:20:12;99011.03;;;-3.90;65.47
75045;BME280;63614;56.026;35.960;2023-12-04T12:22:38;99021.34;;;-4.17;65.02
75045;BME280;63614;56.026;35.960;2023-12-04T12:25:10;99020.28;;;-4.02;64.98
75045;BME280;63614;56.026;35.960;2023-12-04T12:27:38;99017.78;;;-4.15;64.47
75045;BME280;63614;56.026;35.960;2023-12-04T12:30:05;99012.00;;;-4.30;64.94
75045;BME280;63614;56.026;35.960;2023-12-04T12:32:35;99021.16;;;-4.53;65.54
75045;BME280;63614;56.026;35.960;2023-12-04T12:35:04;99023.78;;;-4.67;66.43
75045;BME280;63614;56.026;35.960;2023-12-04T12:37:30;99021.63;;;-4.73;66.40
75045;BME280;63614;56.026;35.960;2023-12-04T12:39:59;99023.44;;;-4.76;66.59
75045;BME280;63614;56.026;35.960;2023-12-04T12:42:26;99025.59;;;-4.57;66.46
75045;BME280;63614;56.026;35.960;2023-12-04T12:44:53;99024.53;;;-4.93;66.68
75045;BME280;63614;56.026;35.960;2023-12-04T12:47:21;99038.66;;;-4.76;66.97
75045;BME280;63614;56.026;35.960;2023-12-04T12:49:47;99034.44;;;-5.02;67.12
75045;BME280;63614;56.026;35.960;2023-12-04T12:52:14;99037.66;;;-5.13;67.61
75045;BME280;63614;56.026;35.960;2023-12-04T12:54:41;99044.56;;;-5.15;67.56